Time;durP1;ratioP1;P1;durP2;ratioP2;P2;SDS_P1;SDS_P2;PMS_P1;PMS_P2;Temp;Humidity;BMP_temperature;BMP_pressure;BME280_temperature;BME280_humidity;BME280_pressure;Samples;Min_cycle;Max_cycle;Signal;HPM_P1;HPM_P2
2023/10/15 00:00:15;;;;;;;6.60;2.40;;;;;;;;;;4983877;28;20078;-74
2023/10/15 00:02:44;;;;;;;5.93;2.28;;;;;;;;;;4983382;28;20572;-74
2023/10/15 00:05:18;;;;;;;4.28;2.55;;;;;;;;;;4983220;28;20042;-74
2023/10/15 00:07:44;;;;;;;4.35;2.42;;;;;;;;;;4983937;28;20133;-74
2023/10/15 00:10:14;;;;;;;4.32;2.75;;;;;;;;;;4982263;28;20042;-74
2023/10/15 00:12:40;;;;;;;5.05;2.42;;;;;;;;;;4983784;28;20078;-74
2023/10/15 00:15:08;;;;;;;7.50;2.55;;;;;;;;;;4994405;28;20128;-74
2023/10/15 00:17:34;;;;;;;4.13;2.40;;;;;;;;;;5003186;28;20117;-74
2023/10/15 00:19:59;;;;;;;5.35;2.40;;;;;;;;;;5002344;28;20032;-74
2023/10/15 00:22:25;;;;;;;6.97;2.80;;;;;;;;;;5007683;28;20065;-74
2023/10/15 00:24:50;;;;;;;4.38;2.75;;;;;;;;;;5012095;28;20069;-74
2023/10/15 00:27:17;;;;;;;6.07;2.60;;;;;;;;;;5020121;28;20034;-74
2023/10/15 00:29:42;;;;;;;8.63;2.95;;;;;;;;;;5015077;28;20088;-74
2023/10/15 00:32:08;;;;;;;6.13;2.58;;;;;;;;;;5007352;28;20412;-74
2023/10/15 00:34:33;;;;;;;6.70;2.97;;;;;;;;;;5005818;28;20042;-74
2023/10/15 00:36:59;;;;;;;8.60;3.17;;;;;;;;;;5007085;28;20038;-74
2023/10/15 00:39:24;;;;;;;6.65;2.95;;;;;;;;;;5005967;28;20038;-74
2023/10/15 00:41:50;;;;;;;8.20;2.90;;;;;;;;;;5006915;28;20072;-74
2023/10/15 00:44:16;;;;;;;7.03;2.95;;;;;;;;;;5007230;28;20064;-74
2023/10/15 00:46:45;;;;;;;7.35;2.88;;;;;;;;;;5007394;28;20050;-73
2023/10/15 00:49:14;;;;;;;7.88;3.33;;;;;;;;;;5006855;28;20042;-74
2023/10/15 00:51:44;;;;;;;5.25;2.80;;;;;;;;;;4997694;28;20039;-74
2023/10/15 00:54:15;;;;;;;8.57;2.65;;;;;;;;;;4987622;28;20042;-74
2023/10/15 00:56:44;;;;;;;6.85;3.00;;;;;;;;;;4998893;28;20057;-74
2023/10/15 00:59:21;;;;;;;6.15;3.42;;;;;;;;;;4990264;28;20042;-74
2023/10/15 01:04:31;;;;;;;7.53;2.80;;;;;;;;;;4987249;28;20061;-74
2023/10/15 01:07:00;;;;;;;8.23;3.03;;;;;;;;;;4986783;28;20137;-74
2023/10/15 01:09:29;;;;;;;5.22;3.05;;;;;;;;;;4985733;28;20038;-74
2023/10/15 01:11:56;;;;;;;7.07;3.20;;;;;;;;;;4985190;28;20046;-74
2023/10/15 01:14:31;;;;;;;8.27;2.80;;;;;;;;;;4985187;28;20579;-74
2023/10/15 01:16:57;;;;;;;7.10;2.80;;;;;;;;;;4987656;28;20104;-74
2023/10/15 01:19:32;;;;;;;5.65;3.00;;;;;;;;;;4987158;28;20133;-74
2023/10/15 01:22:02;;;;;;;5.57;2.85;;;;;;;;;;4985444;28;20034;-73
2023/10/15 01:24:28;;;;;;;6.68;3.47;;;;;;;;;;4985272;28;20041;-74
2023/10/15 01:29:33;;;;;;;8.93;3.03;;;;;;;;;;4987544;28;20528;-74
2023/10/15 01:32:01;;;;;;;6.50;3.15;;;;;;;;;;4984847;28;20029;-74
2023/10/15 01:34:28;;;;;;;6.80;2.95;;;;;;;;;;4986360;28;20050;-74
2023/10/15 01:36:56;;;;;;;4.70;2.58;;;;;;;;;;4986779;28;20046;-74
2023/10/15 01:42:20;;;;;;;5.85;2.72;;;;;;;;;;4976583;28;20038;-74
2023/10/15 01:44:48;;;;;;;7.00;2.97;;;;;;;;;;4989593;28;20056;-74
2023/10/15 01:47:14;;;;;;;7.43;2.83;;;;;;;;;;4997739;28;20129;-74
2023/10/15 01:49:40;;;;;;;9.63;2.97;;;;;;;;;;5004793;28;20073;-74
2023/10/15 01:52:09;;;;;;;7.82;2.65;;;;;;;;;;4992777;28;20042;-74
2023/10/15 01:54:35;;;;;;;6.65;2.80;;;;;;;;;;4997988;28;20037;-74
2023/10/15 01:57:06;;;;;;;10.05;3.13;;;;;;;;;;5004592;28;20556;-74
2023/10/15 01:59:41;;;;;;;3.80;2.50;;;;;;;;;;5001317;28;20038;-74
2023/10/15 02:02:08;;;;;;;6.50;3.22;;;;;;;;;;5001827;28;20034;-74
2023/10/15 02:04:42;;;;;;;7.75;2.80;;;;;;;;;;4985990;28;20189;-74
2023/10/15 02:07:07;;;;;;;7.80;3.10;;;;;;;;;;4985268;28;20457;-74
2023/10/15 02:09:38;;;;;;;11.02;3.13;;;;;;;;;;4986293;28;20559;-74
2023/10/15 02:12:05;;;;;;;6.15;2.67;;;;;;;;;;5000515;28;20050;-74
2023/10/15 02:14:30;;;;;;;6.82;3.15;;;;;;;;;;4986496;28;20034;-74
2023/10/15 02:16:59;;;;;;;7.25;3.20;;;;;;;;;;5002166;28;20048;-74
2023/10/15 02:19:34;;;;;;;7.78;3.50;;;;;;;;;;5005564;28;20616;-74
2023/10/15 02:22:13;;;;;;;5.70;2.60;;;;;;;;;;5005170;28;20061;-74
2023/10/15 02:24:48;;;;;;;5.63;2.78;;;;;;;;;;5003206;28;20484;-74
2023/10/15 02:27:23;;;;;;;6.35;2.75;;;;;;;;;;5005466;28;20041;-74
2023/10/15 02:29:52;;;;;;;8.48;3.10;;;;;;;;;;5005405;28;20521;-74
2023/10/15 02:32:21;;;;;;;6.30;2.67;;;;;;;;;;5004764;28;20030;-73
2023/10/15 02:34:50;;;;;;;6.60;2.75;;;;;;;;;;5005357;28;20053;-73
2023/10/15 02:37:23;;;;;;;6.30;3.55;;;;;;;;;;5005399;28;20539;-74
2023/10/15 02:39:52;;;;;;;9.00;3.13;;;;;;;;;;5004852;28;20434;-74
2023/10/15 02:42:18;;;;;;;6.03;2.92;;;;;;;;;;5005044;28;20974;-74
2023/10/15 02:44:53;;;;;;;5.47;3.03;;;;;;;;;;5004639;28;20171;-74
2023/10/15 02:50:03;;;;;;;5.55;3.22;;;;;;;;;;5005642;28;20080;-74
2023/10/15 02:53:05;;;;;;;7.40;3.47;;;;;;;;;;5003298;28;20054;-73
2023/10/15 02:55:35;;;;;;;7.32;3.60;;;;;;;;;;5002506;28;20048;-74
2023/10/15 02:58:02;;;;;;;10.57;3.17;;;;;;;;;;4997468;28;20062;-74
2023/10/15 03:02:53;;;;;;;8.93;3.83;;;;;;;;;;4985930;28;20053;-74
2023/10/15 03:05:21;;;;;;;8.18;3.78;;;;;;;;;;4986932;28;20022;-73
2023/10/15 03:07:47;;;;;;;10.13;3.80;;;;;;;;;;4994016;28;20018;-74
2023/10/15 03:10:21;;;;;;;9.05;3.47;;;;;;;;;;4997952;28;20120;-73
2023/10/15 03:12:50;;;;;;;6.88;3.67;;;;;;;;;;4985561;28;20096;-74
2023/10/15 03:15:20;;;;;;;16.50;3.80;;;;;;;;;;4982587;28;20091;-73
2023/10/15 03:17:46;;;;;;;8.77;3.60;;;;;;;;;;4983382;28;20493;-73
2023/10/15 03:22:44;;;;;;;9.48;4.00;;;;;;;;;;4984838;28;20045;-74
2023/10/15 03:25:13;;;;;;;8.35;3.70;;;;;;;;;;4984656;28;20061;-74
2023/10/15 03:27:39;;;;;;;8.85;4.00;;;;;;;;;;4985134;28;20042;-74
2023/10/15 03:30:05;;;;;;;9.95;3.78;;;;;;;;;;4984123;28;20129;-74
2023/10/15 03:32:31;;;;;;;11.20;3.78;;;;;;;;;;4984876;28;20037;-74
2023/10/15 03:35:17;;;;;;;6.93;3.42;;;;;;;;;;4985017;28;20062;-74
2023/10/15 03:37:47;;;;;;;12.43;4.75;;;;;;;;;;4984734;28;20046;-74
2023/10/15 03:40:30;;;;;;;7.13;3.55;;;;;;;;;;4984518;28;20077;-74
2023/10/15 03:43:01;;;;;;;7.07;3.42;;;;;;;;;;4984604;28;20115;-74
2023/10/15 03:45:28;;;;;;;7.57;3.40;;;;;;;;;;4983065;28;20045;-74
2023/10/15 03:47:54;;;;;;;7.03;3.88;;;;;;;;;;4982489;28;20559;-74
2023/10/15 03:50:20;;;;;;;6.35;3.58;;;;;;;;;;4984333;28;20038;-74
2023/10/15 03:52:45;;;;;;;7.50;3.38;;;;;;;;;;4984721;28;20026;-74
2023/10/15 03:55:10;;;;;;;12.43;3.80;;;;;;;;;;4982486;28;20034;-74
2023/10/15 03:57:38;;;;;;;6.68;3.00;;;;;;;;;;4998328;28;20133;-74
2023/10/15 04:00:34;;;;;;;6.50;3.42;;;;;;;;;;4983854;28;20053;-74
2023/10/15 04:03:16;;;;;;;7.13;3.22;;;;;;;;;;4984230;28;20035;-74
2023/10/15 04:05:51;;;;;;;8.00;3.47;;;;;;;;;;4984106;28;20058;-74
2023/10/15 04:08:18;;;;;;;9.13;3.97;;;;;;;;;;4983157;28;20033;-74
2023/10/15 04:10:44;;;;;;;4.75;2.72;;;;;;;;;;4984098;28;20038;-74
2023/10/15 04:13:09;;;;;;;9.65;3.60;;;;;;;;;;4994552;28;20092;-74
2023/10/15 04:15:35;;;;;;;8.73;3.40;;;;;;;;;;5003784;28;20076;-74
2023/10/15 04:18:00;;;;;;;5.95;3.00;;;;;;;;;;5003901;28;20524;-74
2023/10/15 04:20:33;;;;;;;8.38;2.97;;;;;;;;;;5003873;28;20033;-74
2023/10/15 04:22:58;;;;;;;8.07;3.30;;;;;;;;;;5005041;28;20028;-73
2023/10/15 04:25:24;;;;;;;16.52;3.33;;;;;;;;;;5003626;28;20125;-73
2023/10/15 04:27:50;;;;;;;6.53;3.10;;;;;;;;;;5009583;28;20030;-74
2023/10/15 04:30:17;;;;;;;7.00;3.80;;;;;;;;;;5017364;28;20041;-74
2023/10/15 04:35:16;;;;;;;6.40;2.88;;;;;;;;;;5006175;28;20106;-74
2023/10/15 04:37:44;;;;;;;7.05;3.38;;;;;;;;;;5004741;28;20484;-74
2023/10/15 04:40:11;;;;;;;7.97;3.22;;;;;;;;;;5004019;28;20045;-74
2023/10/15 04:42:40;;;;;;;11.60;3.60;;;;;;;;;;5003595;28;20037;-74
2023/10/15 04:45:20;;;;;;;8.40;2.88;;;;;;;;;;5002084;28;20528;-74
2023/10/15 04:47:51;;;;;;;5.90;2.95;;;;;;;;;;5003563;28;20076;-74
2023/10/15 04:50:16;;;;;;;10.27;3.40;;;;;;;;;;5004236;28;20025;-73
2023/10/15 04:52:44;;;;;;;8.20;3.20;;;;;;;;;;4986458;28;20108;-74
2023/10/15 04:55:12;;;;;;;7.40;3.05;;;;;;;;;;4983679;28;20054;-73
2023/10/15 04:57:39;;;;;;;7.85;3.50;;;;;;;;;;4998291;28;20093;-74
2023/10/15 05:00:06;;;;;;;9.55;3.10;;;;;;;;;;4983622;28;20486;-73
2023/10/15 05:02:33;;;;;;;6.82;3.15;;;;;;;;;;4983511;28;20102;-74
2023/10/15 05:05:00;;;;;;;8.43;2.70;;;;;;;;;;4984244;28;20034;-74
2023/10/15 05:07:27;;;;;;;7.18;2.75;;;;;;;;;;4985092;28;20042;-74
2023/10/15 05:09:54;;;;;;;5.43;2.97;;;;;;;;;;4987233;28;20065;-73
2023/10/15 05:12:20;;;;;;;5.78;3.03;;;;;;;;;;4986418;28;20054;-74
2023/10/15 05:14:49;;;;;;;9.13;2.90;;;;;;;;;;4985698;28;20182;-74
2023/10/15 05:17:15;;;;;;;4.05;2.60;;;;;;;;;;4985638;28;20030;-74
2023/10/15 05:19:42;;;;;;;7.82;2.63;;;;;;;;;;4986711;28;20058;-74
2023/10/15 05:22:08;;;;;;;6.65;2.75;;;;;;;;;;4986614;28;20034;-73
2023/10/15 05:24:34;;;;;;;7.55;2.83;;;;;;;;;;4986006;28;20042;-74
2023/10/15 05:27:00;;;;;;;4.68;2.80;;;;;;;;;;4986813;28;20077;-73
2023/10/15 05:29:25;;;;;;;6.43;2.83;;;;;;;;;;4986371;28;20516;-74
2023/10/15 05:31:51;;;;;;;7.03;2.90;;;;;;;;;;4987126;28;20101;-74
2023/10/15 05:34:16;;;;;;;5.47;2.78;;;;;;;;;;4988987;28;20525;-74
2023/10/15 05:36:41;;;;;;;6.63;3.05;;;;;;;;;;4999076;28;20054;-74
2023/10/15 05:39:08;;;;;;;6.47;2.53;;;;;;;;;;5004666;28;20073;-74
2023/10/15 05:41:34;;;;;;;7.53;2.53;;;;;;;;;;5004932;28;20061;-73
2023/10/15 05:44:00;;;;;;;8.02;2.40;;;;;;;;;;5006806;28;20509;-74
2023/10/15 05:46:27;;;;;;;7.10;2.95;;;;;;;;;;5007630;28;20041;-74
2023/10/15 05:48:59;;;;;;;9.45;2.85;;;;;;;;;;5003345;28;20552;-74
2023/10/15 05:51:24;;;;;;;4.20;2.28;;;;;;;;;;5015060;28;20038;-74
2023/10/15 05:53:49;;;;;;;4.88;2.33;;;;;;;;;;5010111;28;20052;-74
2023/10/15 05:56:16;;;;;;;6.57;2.67;;;;;;;;;;5005694;28;20418;-74
2023/10/15 05:58:41;;;;;;;7.30;2.58;;;;;;;;;;4993041;28;20034;-73
2023/10/15 06:01:07;;;;;;;5.22;2.70;;;;;;;;;;4989092;28;20036;-74
2023/10/15 06:03:33;;;;;;;4.70;2.80;;;;;;;;;;4984299;28;20612;-74
2023/10/15 06:05:59;;;;;;;11.93;2.88;;;;;;;;;;4986284;28;20042;-74
2023/10/15 06:08:25;;;;;;;9.63;3.20;;;;;;;;;;4985737;28;20063;-74
2023/10/15 06:10:50;;;;;;;12.23;2.92;;;;;;;;;;4985603;28;20019;-73
2023/10/15 06:13:16;;;;;;;4.50;2.47;;;;;;;;;;4986213;28;20038;-74
2023/10/15 06:15:41;;;;;;;8.88;2.92;;;;;;;;;;4985588;28;20042;-74
2023/10/15 06:18:09;;;;;;;7.53;2.60;;;;;;;;;;4985535;28;20072;-74
2023/10/15 06:20:34;;;;;;;10.80;2.90;;;;;;;;;;4985822;28;20539;-74
2023/10/15 06:23:03;;;;;;;13.95;2.90;;;;;;;;;;4985961;28;20022;-74
2023/10/15 06:25:29;;;;;;;6.60;2.85;;;;;;;;;;4984260;28;20117;-74
2023/10/15 06:27:55;;;;;;;5.18;2.42;;;;;;;;;;4987342;28;20137;-74
2023/10/15 06:30:21;;;;;;;7.35;2.47;;;;;;;;;;4985862;28;20042;-74
2023/10/15 06:32:47;;;;;;;14.85;2.72;;;;;;;;;;4985735;28;20038;-74
2023/10/15 06:35:18;;;;;;;10.45;2.85;;;;;;;;;;4989939;28;20537;-74
2023/10/15 06:37:55;;;;;;;8.73;2.65;;;;;;;;;;4995137;28;20073;-74
2023/10/15 06:40:21;;;;;;;7.65;2.40;;;;;;;;;;4998925;28;20038;-74
2023/10/15 06:42:46;;;;;;;9.43;2.72;;;;;;;;;;5004511;28;20428;-74
2023/10/15 06:45:18;;;;;;;8.38;2.55;;;;;;;;;;5004437;28;20041;-74
2023/10/15 06:47:44;;;;;;;4.63;2.08;;;;;;;;;;5003719;28;20048;-74
2023/10/15 06:50:11;;;;;;;9.23;2.58;;;;;;;;;;4999561;28;20045;-74
2023/10/15 06:52:38;;;;;;;5.82;2.58;;;;;;;;;;5002965;28;20516;-73
2023/10/15 06:55:07;;;;;;;5.28;2.30;;;;;;;;;;5002247;28;20554;-73
2023/10/15 06:57:38;;;;;;;5.88;2.20;;;;;;;;;;4987349;28;20033;-73
2023/10/15 07:00:08;;;;;;;3.13;1.80;;;;;;;;;;5001328;28;20144;-73
2023/10/15 07:02:33;;;;;;;10.10;2.47;;;;;;;;;;5003499;28;20025;-72
2023/10/15 07:05:00;;;;;;;7.95;2.67;;;;;;;;;;5002893;28;20029;-72
2023/10/15 07:07:26;;;;;;;5.03;2.40;;;;;;;;;;5006016;28;20413;-72
2023/10/15 07:09:52;;;;;;;7.55;2.40;;;;;;;;;;5006901;28;20555;-73
2023/10/15 07:12:17;;;;;;;3.70;2.13;;;;;;;;;;5007682;28;20050;-72
2023/10/15 07:14:43;;;;;;;9.50;2.70;;;;;;;;;;4995082;28;20508;-72
2023/10/15 07:17:09;;;;;;;5.10;2.10;;;;;;;;;;4991191;28;20021;-73
2023/10/15 07:19:35;;;;;;;5.22;2.13;;;;;;;;;;4985627;28;20243;-73
2023/10/15 07:22:01;;;;;;;7.80;2.45;;;;;;;;;;5001207;28;20040;-73
2023/10/15 07:24:27;;;;;;;6.45;2.03;;;;;;;;;;4997860;28;20673;-73
2023/10/15 07:26:52;;;;;;;4.10;2.15;;;;;;;;;;5001644;28;20045;-73
2023/10/15 07:29:18;;;;;;;5.15;2.53;;;;;;;;;;4982190;28;20038;-73
2023/10/15 07:31:44;;;;;;;8.43;2.55;;;;;;;;;;4988331;28;20091;-73
2023/10/15 07:34:10;;;;;;;5.75;2.20;;;;;;;;;;4995538;28;20137;-73
2023/10/15 07:36:36;;;;;;;8.45;2.70;;;;;;;;;;4992757;28;20088;-73
2023/10/15 07:39:06;;;;;;;7.20;2.33;;;;;;;;;;5002647;28;20042;-73
2023/10/15 07:41:32;;;;;;;8.15;2.58;;;;;;;;;;4998181;28;20040;-73
2023/10/15 07:43:57;;;;;;;4.65;1.90;;;;;;;;;;5002026;28;20022;-73
2023/10/15 07:46:22;;;;;;;8.57;2.72;;;;;;;;;;5003185;28;20037;-73
2023/10/15 07:48:48;;;;;;;5.97;2.50;;;;;;;;;;5002808;28;20064;-73
2023/10/15 07:51:14;;;;;;;4.97;1.92;;;;;;;;;;4996767;28;20042;-73
2023/10/15 07:53:40;;;;;;;6.25;2.08;;;;;;;;;;4995033;28;20047;-73
2023/10/15 07:56:06;;;;;;;8.32;2.58;;;;;;;;;;5002219;28;20062;-73
2023/10/15 07:58:31;;;;;;;6.68;2.13;;;;;;;;;;4994431;28;20037;-73
2023/10/15 08:00:59;;;;;;;4.38;2.35;;;;;;;;;;4983354;28;20049;-73
2023/10/15 08:03:26;;;;;;;4.90;2.17;;;;;;;;;;4999104;28;20092;-73
2023/10/15 08:05:51;;;;;;;8.13;2.00;;;;;;;;;;5001915;28;20103;-73
2023/10/15 08:08:17;;;;;;;3.80;2.10;;;;;;;;;;4993820;28;20038;-75
2023/10/15 08:10:42;;;;;;;8.15;2.20;;;;;;;;;;4987206;28;20037;-73
2023/10/15 08:13:08;;;;;;;3.40;1.55;;;;;;;;;;4990878;28;20067;-73
2023/10/15 08:15:34;;;;;;;5.10;1.70;;;;;;;;;;4989248;28;20791;-73
2023/10/15 08:18:01;;;;;;;6.18;1.63;;;;;;;;;;4988520;28;20042;-73
2023/10/15 08:20:27;;;;;;;6.22;1.55;;;;;;;;;;4993717;28;20022;-74
2023/10/15 08:22:53;;;;;;;5.72;1.83;;;;;;;;;;4984282;28;20053;-72
2023/10/15 08:25:25;;;;;;;6.28;1.58;;;;;;;;;;4977374;28;20034;-73
2023/10/15 08:27:50;;;;;;;5.47;1.50;;;;;;;;;;4982981;28;20046;-73
2023/10/15 08:30:17;;;;;;;5.47;1.50;;;;;;;;;;5006086;28;20049;-72
2023/10/15 08:32:44;;;;;;;5.30;1.67;;;;;;;;;;5010714;28;20069;-73
2023/10/15 08:35:10;;;;;;;4.80;1.38;;;;;;;;;;4986217;28;20038;-73
2023/10/15 08:37:42;;;;;;;5.78;1.48;;;;;;;;;;4981306;28;20042;-72
2023/10/15 08:40:15;;;;;;;2.95;1.20;;;;;;;;;;4982107;28;20042;-73
2023/10/15 08:42:56;;;;;;;2.90;1.10;;;;;;;;;;4984839;28;20058;-73
2023/10/15 08:45:23;;;;;;;2.35;0.90;;;;;;;;;;4988774;28;21045;-72
2023/10/15 08:47:50;;;;;;;4.68;1.23;;;;;;;;;;5006362;28;20141;-72
2023/10/15 08:50:16;;;;;;;5.63;1.33;;;;;;;;;;5004926;28;20088;-72
2023/10/15 08:52:45;;;;;;;1.95;1.00;;;;;;;;;;5005980;28;20104;-73
2023/10/15 08:55:11;;;;;;;2.72;1.02;;;;;;;;;;5004999;28;20046;-73
2023/10/15 08:57:37;;;;;;;5.13;1.17;;;;;;;;;;5005673;28;20045;-73
2023/10/15 09:00:25;;;;;;;9.52;1.10;;;;;;;;;;5004407;28;20037;-74
2023/10/15 09:02:56;;;;;;;4.45;1.30;;;;;;;;;;4997341;28;20057;-72
2023/10/15 09:05:22;;;;;;;5.72;1.20;;;;;;;;;;5003345;28;20115;-72
2023/10/15 09:07:49;;;;;;;6.63;1.30;;;;;;;;;;5006362;28;20485;-72
2023/10/15 09:10:16;;;;;;;3.72;1.13;;;;;;;;;;5005847;28;20065;-73
2023/10/15 09:12:42;;;;;;;5.00;1.63;;;;;;;;;;5005387;28;20586;-72
2023/10/15 09:15:16;;;;;;;8.30;1.55;;;;;;;;;;5001543;28;20046;-73
2023/10/15 09:18:02;;;;;;;2.58;1.00;;;;;;;;;;5005759;28;20069;-73
2023/10/15 09:20:28;;;;;;;3.33;1.23;;;;;;;;;;4996714;28;20030;-73
2023/10/15 09:22:58;;;;;;;3.92;1.10;;;;;;;;;;5013800;28;20032;-73
2023/10/15 09:25:25;;;;;;;5.03;1.15;;;;;;;;;;5023891;28;20179;-73
2023/10/15 09:27:53;;;;;;;3.55;1.30;;;;;;;;;;5014798;28;20050;-72
2023/10/15 09:30:21;;;;;;;4.97;1.20;;;;;;;;;;4998472;28;20052;-72
2023/10/15 09:32:47;;;;;;;1.63;0.90;;;;;;;;;;4999715;28;20048;-73
2023/10/15 09:35:14;;;;;;;5.22;1.15;;;;;;;;;;5006177;28;20056;-73
2023/10/15 09:37:40;;;;;;;6.90;1.25;;;;;;;;;;5007288;28;20121;-72
2023/10/15 09:40:23;;;;;;;4.35;0.85;;;;;;;;;;5003068;28;20137;-72
2023/10/15 09:42:53;;;;;;;4.85;0.88;;;;;;;;;;4998592;28;20073;-73
2023/10/15 09:45:19;;;;;;;3.55;1.00;;;;;;;;;;4995384;28;20103;-72
2023/10/15 09:47:48;;;;;;;4.40;0.88;;;;;;;;;;5001614;28;20513;-73
2023/10/15 09:50:19;;;;;;;2.50;0.70;;;;;;;;;;5013398;28;20113;-74
2023/10/15 09:52:54;;;;;;;2.92;1.00;;;;;;;;;;5020136;28;20045;-74
2023/10/15 09:55:23;;;;;;;2.95;0.90;;;;;;;;;;5003322;28;20042;-74
2023/10/15 09:57:52;;;;;;;2.63;0.93;;;;;;;;;;5005301;28;20046;-74
2023/10/15 10:00:32;;;;;;;1.45;0.70;;;;;;;;;;4996989;28;20050;-74
2023/10/15 10:03:12;;;;;;;5.65;1.08;;;;;;;;;;5003778;28;20042;-74
2023/10/15 10:05:49;;;;;;;4.53;0.90;;;;;;;;;;5004288;28;20037;-74
2023/10/15 10:08:32;;;;;;;3.00;0.75;;;;;;;;;;5017631;28;20037;-74
2023/10/15 10:11:19;;;;;;;4.22;0.80;;;;;;;;;;5024536;28;20088;-74
2023/10/15 10:13:44;;;;;;;4.10;0.90;;;;;;;;;;5003999;28;20038;-74
2023/10/15 10:16:22;;;;;;;1.95;0.90;;;;;;;;;;5004212;28;20056;-74
2023/10/15 10:18:48;;;;;;;2.47;0.57;;;;;;;;;;5004509;28;20049;-73
2023/10/15 10:21:15;;;;;;;2.65;1.00;;;;;;;;;;4996563;28;20057;-81
2023/10/15 10:23:41;;;;;;;1.73;0.88;;;;;;;;;;5001328;28;20547;-75
2023/10/15 10:26:14;;;;;;;2.45;0.93;;;;;;;;;;5004374;28;20033;-75
2023/10/15 10:28:40;;;;;;;3.33;1.05;;;;;;;;;;5002881;28;20084;-75
2023/10/15 10:31:09;;;;;;;4.57;0.80;;;;;;;;;;5004368;28;20041;-75
2023/10/15 10:33:44;;;;;;;6.28;1.13;;;;;;;;;;5004108;28;20701;-73
2023/10/15 10:36:17;;;;;;;4.40;1.08;;;;;;;;;;5004397;28;20041;-74
2023/10/15 10:38:44;;;;;;;7.28;1.52;;;;;;;;;;5002839;28;20030;-73
2023/10/15 10:41:13;;;;;;;4.53;0.90;;;;;;;;;;5004523;28;20057;-73
2023/10/15 10:43:42;;;;;;;3.78;1.17;;;;;;;;;;5004098;28;20525;-74
2023/10/15 10:46:20;;;;;;;4.53;0.90;;;;;;;;;;5003422;28;20046;-74
2023/10/15 10:49:02;;;;;;;4.95;1.30;;;;;;;;;;5002627;28;20137;-74
2023/10/15 10:51:30;;;;;;;1.45;0.77;;;;;;;;;;4991700;28;20038;-74
2023/10/15 10:54:15;;;;;;;5.72;1.05;;;;;;;;;;4993984;28;20050;-74
2023/10/15 10:56:41;;;;;;;1.90;0.80;;;;;;;;;;4996845;28;20125;-74
2023/10/15 10:59:07;;;;;;;2.05;0.75;;;;;;;;;;4987721;28;20122;-76
2023/10/15 11:01:37;;;;;;;3.38;0.80;;;;;;;;;;4987864;28;20065;-74
2023/10/15 11:04:03;;;;;;;1.60;0.85;;;;;;;;;;4992816;28;20046;-74
2023/10/15 11:06:29;;;;;;;1.92;0.80;;;;;;;;;;5004459;28;20093;-74
2023/10/15 11:08:54;;;;;;;3.22;0.80;;;;;;;;;;5007621;28;20544;-74
2023/10/15 11:11:19;;;;;;;9.45;1.02;;;;;;;;;;5012920;28;20026;-74
2023/10/15 11:13:47;;;;;;;3.97;0.68;;;;;;;;;;5017471;28;20135;-74
2023/10/15 11:16:13;;;;;;;1.83;0.70;;;;;;;;;;5003476;28;20049;-74
2023/10/15 11:18:39;;;;;;;4.05;0.93;;;;;;;;;;5003114;28;20041;-74
2023/10/15 11:21:07;;;;;;;2.75;0.80;;;;;;;;;;5003156;28;20060;-74
2023/10/15 11:23:33;;;;;;;2.95;0.60;;;;;;;;;;5002089;28;20034;-74
2023/10/15 11:25:59;;;;;;;4.80;0.95;;;;;;;;;;5003626;28;20038;-74
2023/10/15 11:28:24;;;;;;;1.75;0.70;;;;;;;;;;5003002;28;20045;-74
2023/10/15 11:30:50;;;;;;;5.35;0.60;;;;;;;;;;5001564;28;20053;-74
2023/10/15 11:33:17;;;;;;;5.18;0.90;;;;;;;;;;4998820;28;20129;-73
2023/10/15 11:35:45;;;;;;;2.92;0.70;;;;;;;;;;4982135;28;20125;-73
2023/10/15 11:38:10;;;;;;;2.60;0.70;;;;;;;;;;4981893;28;20492;-73
2023/10/15 11:40:38;;;;;;;1.90;0.77;;;;;;;;;;4983361;28;20050;-74
2023/10/15 11:43:08;;;;;;;7.35;0.90;;;;;;;;;;4983563;28;20072;-73
2023/10/15 11:45:37;;;;;;;1.98;0.70;;;;;;;;;;4982766;28;20061;-73
2023/10/15 11:48:04;;;;;;;2.78;0.70;;;;;;;;;;4995271;28;20476;-72
2023/10/15 11:50:29;;;;;;;1.60;1.00;;;;;;;;;;4998095;28;20021;-72
2023/10/15 11:52:55;;;;;;;2.15;0.80;;;;;;;;;;4997032;28;20037;-72
2023/10/15 11:55:22;;;;;;;1.60;0.63;;;;;;;;;;5002438;28;20057;-72
2023/10/15 11:57:51;;;;;;;6.05;1.10;;;;;;;;;;4994910;28;20046;-72
2023/10/15 12:00:31;;;;;;;6.45;1.08;;;;;;;;;;4981664;28;20041;-72
2023/10/15 12:02:59;;;;;;;2.08;0.80;;;;;;;;;;4983224;28;20046;-72
2023/10/15 12:05:34;;;;;;;5.60;1.05;;;;;;;;;;4998750;28;20026;-72
2023/10/15 12:08:00;;;;;;;1.95;0.80;;;;;;;;;;5001864;28;20029;-72
2023/10/15 12:10:27;;;;;;;2.40;0.90;;;;;;;;;;4993201;28;20042;-72
2023/10/15 12:12:52;;;;;;;3.92;1.10;;;;;;;;;;4994976;28;20053;-72
2023/10/15 12:15:18;;;;;;;2.28;0.82;;;;;;;;;;5002679;28;20429;-72
2023/10/15 12:17:43;;;;;;;1.65;0.80;;;;;;;;;;5000441;28;20128;-72
2023/10/15 12:20:11;;;;;;;4.10;0.90;;;;;;;;;;4994236;28;20026;-72
2023/10/15 12:22:37;;;;;;;3.80;0.80;;;;;;;;;;5000835;28;20069;-72
2023/10/15 12:25:03;;;;;;;3.83;0.60;;;;;;;;;;5007038;28;20072;-72
2023/10/15 12:27:28;;;;;;;2.35;0.85;;;;;;;;;;5008576;28;20045;-72
2023/10/15 12:29:54;;;;;;;6.53;1.00;;;;;;;;;;5001039;28;20045;-71
2023/10/15 12:32:20;;;;;;;3.97;0.90;;;;;;;;;;5006219;28;20188;-72
2023/10/15 12:34:46;;;;;;;2.80;0.80;;;;;;;;;;5002823;28;20430;-73
2023/10/15 12:37:13;;;;;;;1.67;0.70;;;;;;;;;;4990611;28;20089;-73
2023/10/15 12:39:44;;;;;;;6.32;0.93;;;;;;;;;;4986505;28;20796;-73
2023/10/15 12:42:11;;;;;;;4.65;0.80;;;;;;;;;;5001937;28;20172;-73
2023/10/15 12:44:40;;;;;;;6.32;0.65;;;;;;;;;;4992697;28;20038;-73
2023/10/15 12:47:08;;;;;;;2.85;0.77;;;;;;;;;;5004752;28;20493;-73
2023/10/15 12:49:35;;;;;;;4.53;0.60;;;;;;;;;;5006592;28;20572;-73
2023/10/15 12:52:02;;;;;;;2.42;0.70;;;;;;;;;;5005108;28;20073;-73
2023/10/15 12:54:28;;;;;;;1.23;0.50;;;;;;;;;;5004823;28;20029;-73
2023/10/15 12:56:55;;;;;;;3.85;1.25;;;;;;;;;;5005760;28;20060;-73
2023/10/15 12:59:21;;;;;;;1.67;0.70;;;;;;;;;;4987803;28;20076;-73
2023/10/15 13:01:47;;;;;;;4.72;0.70;;;;;;;;;;4986985;28;20026;-73
2023/10/15 13:04:12;;;;;;;3.80;0.80;;;;;;;;;;4992567;28;20045;-73
2023/10/15 13:06:37;;;;;;;2.70;0.90;;;;;;;;;;5004705;28;20042;-73
2023/10/15 13:09:09;;;;;;;2.38;0.75;;;;;;;;;;5002704;28;20042;-73
2023/10/15 13:11:38;;;;;;;3.03;1.05;;;;;;;;;;5002524;28;20062;-73
2023/10/15 13:14:05;;;;;;;4.93;1.00;;;;;;;;;;5005536;28;20038;-73
2023/10/15 13:16:30;;;;;;;1.90;0.80;;;;;;;;;;5001710;28;20133;-73
2023/10/15 13:18:56;;;;;;;4.00;1.00;;;;;;;;;;5003117;28;20137;-73
2023/10/15 13:21:22;;;;;;;2.05;0.80;;;;;;;;;;4998294;28;20157;-73
2023/10/15 13:23:48;;;;;;;5.30;1.23;;;;;;;;;;5000689;28;20034;-73
2023/10/15 13:26:14;;;;;;;4.85;0.85;;;;;;;;;;5000493;28;20079;-73
2023/10/15 13:28:39;;;;;;;3.53;0.80;;;;;;;;;;5004717;28;20425;-73
2023/10/15 13:31:09;;;;;;;2.03;0.73;;;;;;;;;;5002922;28;20042;-73
2023/10/15 13:33:36;;;;;;;6.88;1.20;;;;;;;;;;4993789;28;21017;-73
2023/10/15 13:36:02;;;;;;;4.25;0.82;;;;;;;;;;4997558;28;20049;-73
2023/10/15 13:38:27;;;;;;;3.83;1.23;;;;;;;;;;4993880;28;20021;-73
2023/10/15 13:40:52;;;;;;;2.10;0.80;;;;;;;;;;4996246;28;20018;-73
2023/10/15 13:43:18;;;;;;;3.85;0.80;;;;;;;;;;5000702;28;20041;-73
2023/10/15 13:45:43;;;;;;;3.25;0.70;;;;;;;;;;5004972;28;20172;-73
2023/10/15 13:48:12;;;;;;;2.45;0.80;;;;;;;;;;5006718;28;20030;-73
2023/10/15 13:50:37;;;;;;;2.63;0.93;;;;;;;;;;5012992;28;20037;-73
2023/10/15 13:53:03;;;;;;;3.05;0.77;;;;;;;;;;5016948;28;20022;-72
2023/10/15 13:55:29;;;;;;;0.95;0.63;;;;;;;;;;5004194;28;20417;-73
2023/10/15 13:57:54;;;;;;;5.15;0.77;;;;;;;;;;5003787;28;20176;-73
2023/10/15 14:00:21;;;;;;;1.85;0.77;;;;;;;;;;5003350;28;20049;-72
2023/10/15 14:02:48;;;;;;;1.10;0.60;;;;;;;;;;5001233;28;20463;-72
2023/10/15 14:05:18;;;;;;;2.53;0.75;;;;;;;;;;4984948;28;20034;-72
2023/10/15 14:07:49;;;;;;;1.33;0.50;;;;;;;;;;4983935;28;20046;-72
2023/10/15 14:10:15;;;;;;;1.48;0.70;;;;;;;;;;4983355;28;20053;-73
2023/10/15 14:12:41;;;;;;;4.95;0.90;;;;;;;;;;4976061;28;20425;-73
2023/10/15 14:15:10;;;;;;;5.55;1.10;;;;;;;;;;4982231;28;20553;-73
2023/10/15 14:17:37;;;;;;;5.78;0.80;;;;;;;;;;4987644;28;20091;-73
2023/10/15 14:20:09;;;;;;;3.80;1.05;;;;;;;;;;5012852;28;20030;-73
2023/10/15 14:22:35;;;;;;;2.25;0.98;;;;;;;;;;5003375;28;20038;-73
2023/10/15 14:25:01;;;;;;;2.65;0.70;;;;;;;;;;5000057;28;20034;-73
2023/10/15 14:27:27;;;;;;;3.42;0.80;;;;;;;;;;5000205;28;20045;-73
2023/10/15 14:29:52;;;;;;;1.75;0.90;;;;;;;;;;5003394;28;20876;-73
2023/10/15 14:32:18;;;;;;;3.97;0.95;;;;;;;;;;4999404;28;20069;-73
2023/10/15 14:34:43;;;;;;;1.15;0.70;;;;;;;;;;5000797;28;20493;-73
2023/10/15 14:37:09;;;;;;;3.45;0.82;;;;;;;;;;5002646;28;20110;-73
2023/10/15 14:39:34;;;;;;;1.38;0.70;;;;;;;;;;4998722;28;20516;-73
2023/10/15 14:42:00;;;;;;;1.23;0.70;;;;;;;;;;4996659;28;20115;-73
2023/10/15 14:44:25;;;;;;;2.63;0.80;;;;;;;;;;4998191;28;20030;-73
2023/10/15 14:46:51;;;;;;;2.65;0.95;;;;;;;;;;5003374;28;20519;-73
2023/10/15 14:49:16;;;;;;;2.05;0.60;;;;;;;;;;4995626;28;20531;-73
2023/10/15 14:51:42;;;;;;;2.80;0.65;;;;;;;;;;4992816;28;20084;-73
2023/10/15 14:54:07;;;;;;;1.50;0.60;;;;;;;;;;4998107;28;20491;-74
2023/10/15 14:56:33;;;;;;;2.40;0.60;;;;;;;;;;4994568;28;20064;-74
2023/10/15 14:59:00;;;;;;;1.52;0.95;;;;;;;;;;4996423;28;20026;-74
2023/10/15 15:01:25;;;;;;;1.90;0.80;;;;;;;;;;4993266;28;20088;-74
2023/10/15 15:03:51;;;;;;;3.10;0.70;;;;;;;;;;4993865;28;20413;-74
2023/10/15 15:06:16;;;;;;;3.65;0.98;;;;;;;;;;4989824;28;20130;-74